sensor_id;sensor_type;location;lat;lon;timestamp;P1;durP1;ratioP1;P2;durP2;ratioP2
12721;SDS011;6425;50.316;8.114;2023-12-07T00:00:00;20.8;;;11.3;;
12721;SDS011;6425;50.316;8.114;2023-12-07T00:03:00;20.7;;;11.6;;
12721;SDS011;6425;50.316;8.114;2023-12-07T00:06:00;22.8;;;10.7;;
12721;SDS011;6425;50.316;8.114;2023-12-07T00:09:00;22.8;;;10.7;;
12721;SDS011;6425;50.316;8.114;2023-12-07T00:12:00;18.2;;;10.4;;
12721;SDS011;6425;50.316;8.114;2023-12-07T00:15:00;18.2;;;10.4;;
12721;SDS011;6425;50.316;8.114;2023-12-07T00:18:00;17.1;;;10.2;;
12721;SDS011;6425;50.316;8.114;2023-12-07T00:21:00;19.9;;;10.8;;
12721;SDS011;6425;50.316;8.114;2023-12-07T00:24:00;19.9;;;10.8;;
12721;SDS011;6425;50.316;8.114;2023-12-07T00:27:00;18.8;;;10.3;;
12721;SDS011;6425;50.316;8.114;2023-12-07T00:30:00;18.8;;;10.3;;
12721;SDS011;6425;50.316;8.114;2023-12-07T00:33:00;17.8;;;10.2;;
12721;SDS011;6425;50.316;8.114;2023-12-07T00:36:00;19.8;;;10.4;;
12721;SDS011;6425;50.316;8.114;2023-12-07T00:39:00;19.8;;;10.4;;
12721;SDS011;6425;50.316;8.114;2023-12-07T00:42:00;19.2;;;10.5;;
12721;SDS011;6425;50.316;8.114;2023-12-07T00:45:00;19.2;;;10.5;;
12721;SDS011;6425;50.316;8.114;2023-12-07T00:48:00;20.7;;;10.8;;
12721;SDS011;6425;50.316;8.114;2023-12-07T00:51:00;20.6;;;10.6;;
12721;SDS011;6425;50.316;8.114;2023-12-07T00:54:00;20.6;;;10.6;;
12721;SDS011;6425;50.316;8.114;2023-12-07T00:57:00;19.5;;;10.1;;
12721;SDS011;6425;50.316;8.114;2023-12-07T01:00:00;19.5;;;10.1;;
12721;SDS011;6425;50.316;8.114;2023-12-07T01:03:00;17.8;;;10.3;;
12721;SDS011;6425;50.316;8.114;2023-12-07T01:06:00;18.4;;;9.8;;
12721;SDS011;6425;50.316;8.114;2023-12-07T01:09:00;18.4;;;9.8;;
12721;SDS011;6425;50.316;8.114;2023-12-07T01:12:00;18.3;;;10.2;;
12721;SDS011;6425;50.316;8.114;2023-12-07T01:15:00;18.3;;;10.2;;
12721;SDS011;6425;50.316;8.114;2023-12-07T01:18:00;17.2;;;9.5;;
12721;SDS011;6425;50.316;8.114;2023-12-07T01:21:00;20.9;;;10.7;;
12721;SDS011;6425;50.316;8.114;2023-12-07T01:24:00;20.9;;;10.7;;
12721;SDS011;6425;50.316;8.114;2023-12-07T01:27:00;15.5;;;10;;
12721;SDS011;6425;50.316;8.114;2023-12-07T01:30:00;15.5;;;10;;
12721;SDS011;6425;50.316;8.114;2023-12-07T01:33:00;19.6;;;10.2;;
12721;SDS011;6425;50.316;8.114;2023-12-07T01:36:00;18.2;;;10.4;;
12721;SDS011;6425;50.316;8.114;2023-12-07T01:39:00;18.2;;;10.4;;
12721;SDS011;6425;50.316;8.114;2023-12-07T01:42:00;19.2;;;10.2;;
12721;SDS011;6425;50.316;8.114;2023-12-07T01:45:00;18.3;;;10.8;;
12721;SDS011;6425;50.316;8.114;2023-12-07T01:48:00;18;;;11;;
12721;SDS011;6425;50.316;8.114;2023-12-07T01:51:00;15.9;;;9.1;;
12721;SDS011;6425;50.316;8.114;2023-12-07T01:54:00;15.9;;;9.1;;
12721;SDS011;6425;50.316;8.114;2023-12-07T01:57:00;17.2;;;9.5;;
12721;SDS011;6425;50.316;8.114;2023-12-07T02:00:00;19.8;;;10.5;;
12721;SDS011;6425;50.316;8.114;2023-12-07T02:03:00;19.8;;;10.5;;
12721;SDS011;6425;50.316;8.114;2023-12-07T02:06:00;18.9;;;11.2;;
12721;SDS011;6425;50.316;8.114;2023-12-07T02:09:00;18.9;;;11.2;;
12721;SDS011;6425;50.316;8.114;2023-12-07T02:12:00;20.8;;;10.2;;
12721;SDS011;6425;50.316;8.114;2023-12-07T02:15:00;17.6;;;9.6;;
12721;SDS011;6425;50.316;8.114;2023-12-07T02:18:02;17.6;;;9.6;;
12721;SDS011;6425;50.316;8.114;2023-12-07T02:21:01;19.9;;;10.6;;
12721;SDS011;6425;50.316;8.114;2023-12-07T02:24:00;19.9;;;10.6;;
12721;SDS011;6425;50.316;8.114;2023-12-07T02:27:00;21.3;;;11.1;;
12721;SDS011;6425;50.316;8.114;2023-12-07T02:30:00;22;;;11;;
12721;SDS011;6425;50.316;8.114;2023-12-07T02:33:00;22;;;11;;
12721;SDS011;6425;50.316;8.114;2023-12-07T02:36:00;18.6;;;10.8;;
12721;SDS011;6425;50.316;8.114;2023-12-07T02:39:00;18.6;;;10.8;;
12721;SDS011;6425;50.316;8.114;2023-12-07T02:42:00;18.7;;;10.6;;
12721;SDS011;6425;50.316;8.114;2023-12-07T02:45:00;22.7;;;11.6;;
12721;SDS011;6425;50.316;8.114;2023-12-07T02:48:00;22.7;;;11.6;;
12721;SDS011;6425;50.316;8.114;2023-12-07T02:51:00;24.6;;;11.6;;
12721;SDS011;6425;50.316;8.114;2023-12-07T02:54:00;24.6;;;11.6;;
12721;SDS011;6425;50.316;8.114;2023-12-07T02:57:00;18.9;;;11.2;;
12721;SDS011;6425;50.316;8.114;2023-12-07T03:00:00;21.1;;;10.9;;
12721;SDS011;6425;50.316;8.114;2023-12-07T03:03:00;21.1;;;10.9;;
12721;SDS011;6425;50.316;8.114;2023-12-07T03:06:00;24.6;;;12.7;;
12721;SDS011;6425;50.316;8.114;2023-12-07T03:09:00;24.6;;;12.7;;
12721;SDS011;6425;50.316;8.114;2023-12-07T03:12:00;22.4;;;12.4;;
12721;SDS011;6425;50.316;8.114;2023-12-07T03:15:00;21.2;;;11.8;;
12721;SDS011;6425;50.316;8.114;2023-12-07T03:18:00;21.2;;;11.8;;
12721;SDS011;6425;50.316;8.114;2023-12-07T03:21:01;21.6;;;11.1;;
12721;SDS011;6425;50.316;8.114;2023-12-07T03:24:00;21.6;;;11.1;;
12721;SDS011;6425;50.316;8.114;2023-12-07T03:27:00;20.5;;;11.2;;
12721;SDS011;6425;50.316;8.114;2023-12-07T03:30:00;19.4;;;10.4;;
12721;SDS011;6425;50.316;8.114;2023-12-07T03:33:00;19.4;;;10.4;;
12721;SDS011;6425;50.316;8.114;2023-12-07T03:36:00;17.3;;;10.2;;
12721;SDS011;6425;50.316;8.114;2023-12-07T03:39:00;17.3;;;10.2;;
12721;SDS011;6425;50.316;8.114;2023-12-07T03:42:00;17.8;;;10.5;;
12721;SDS011;6425;50.316;8.114;2023-12-07T03:45:00;19.6;;;9.8;;
12721;SDS011;6425;50.316;8.114;2023-12-07T03:48:00;19.6;;;9.8;;
12721;SDS011;6425;50.316;8.114;2023-12-07T03:51:00;20.5;;;10.7;;
12721;SDS011;6425;50.316;8.114;2023-12-07T03:54:00;20.5;;;10.7;;
12721;SDS011;6425;50.316;8.114;2023-12-07T03:57:00;22.2;;;13;;
12721;SDS011;6425;50.316;8.114;2023-12-07T04:00:00;19;;;12;;
12721;SDS011;6425;50.316;8.114;2023-12-07T04:03:00;19;;;12;;
12721;SDS011;6425;50.316;8.114;2023-12-07T04:06:00;19.7;;;10.4;;
12721;SDS011;6425;50.316;8.114;2023-12-07T04:09:00;19.7;;;10.4;;
12721;SDS011;6425;50.316;8.114;2023-12-07T04:12:00;20.3;;;11.3;;
12721;SDS011;6425;50.316;8.114;2023-12-07T04:15:00;25.9;;;12.9;;
12721;SDS011;6425;50.316;8.114;2023-12-07T04:18:00;25.9;;;12.9;;
12721;SDS011;6425;50.316;8.114;2023-12-07T04:21:00;24.8;;;13.1;;
12721;SDS011;6425;50.316;8.114;2023-12-07T04:24:00;22.3;;;11.9;;
12721;SDS011;6425;50.316;8.114;2023-12-07T04:27:00;22.3;;;11.9;;
12721;SDS011;6425;50.316;8.114;2023-12-07T04:30:00;20.4;;;11.4;;
12721;SDS011;6425;50.316;8.114;2023-12-07T04:33:00;20.4;;;11.4;;
12721;SDS011;6425;50.316;8.114;2023-12-07T04:36:00;27.2;;;12.3;;
12721;SDS011;6425;50.316;8.114;2023-12-07T04:39:00;20.8;;;12;;
12721;SDS011;6425;50.316;8.114;2023-12-07T04:42:00;20.8;;;12;;
12721;SDS011;6425;50.316;8.114;2023-12-07T04:45:00;21;;;11.8;;
12721;SDS011;6425;50.316;8.114;2023-12-07T04:48:00;21;;;11.8;;
12721;SDS011;6425;50.316;8.114;2023-12-07T04:51:00;18.5;;;10.2;;
12721;SDS011;6425;50.316;8.114;2023-12-07T04:54:00;28.6;;;14;;
12721;SDS011;6425;50.316;8.114;2023-12-07T04:57:00;28.6;;;14;;
12721;SDS011;6425;50.316;8.114;2023-12-07T05:00:00;23;;;12.1;;
12721;SDS011;6425;50.316;8.114;2023-12-07T05:03:00;23;;;12.1;;
12721;SDS011;6425;50.316;8.114;2023-12-07T05:06:00;18.4;;;10.3;;
12721;SDS011;6425;50.316;8.114;2023-12-07T05:09:00;20.9;;;12.6;;
12721;SDS011;6425;50.316;8.114;2023-12-07T05:12:00;20.9;;;12.6;;
12721;SDS011;6425;50.316;8.114;2023-12-07T05:15:00;41.4;;;19.3;;
12721;SDS011;6425;50.316;8.114;2023-12-07T05:18:00;41.4;;;19.3;;
12721;SDS011;6425;50.316;8.114;2023-12-07T05:21:00;22.7;;;12.4;;
12721;SDS011;6425;50.316;8.114;2023-12-07T05:24:00;41.8;;;18.3;;
12721;SDS011;6425;50.316;8.114;2023-12-07T05:27:00;41.8;;;18.3;;
12721;SDS011;6425;50.316;8.114;2023-12-07T05:30:00;25.6;;;11.9;;
12721;SDS011;6425;50.316;8.114;2023-12-07T05:33:00;25.6;;;11.9;;
12721;SDS011;6425;50.316;8.114;2023-12-07T05:36:00;101.7;;;33.5;;
12721;SDS011;6425;50.316;8.114;2023-12-07T05:39:00;64.1;;;23.9;;
12721;SDS011;6425;50.316;8.114;2023-12-07T05:42:00;64.1;;;23.9;;
12721;SDS011;6425;50.316;8.114;2023-12-07T05:45:00;29.3;;;13.6;;
12721;SDS011;6425;50.316;8.114;2023-12-07T05:48:00;29.3;;;13.6;;
12721;SDS011;6425;50.316;8.114;2023-12-07T05:51:01;54;;;25.7;;
12721;SDS011;6425;50.316;8.114;2023-12-07T05:54:00;38.7;;;16.8;;
12721;SDS011;6425;50.316;8.114;2023-12-07T05:57:00;38.7;;;16.8;;
12721;SDS011;6425;50.316;8.114;2023-12-07T06:00:00;27.4;;;14.1;;
12721;SDS011;6425;50.316;8.114;2023-12-07T06:03:00;27.4;;;14.1;;
12721;SDS011;6425;50.316;8.114;2023-12-07T06:06:00;60;;;32.5;;
12721;SDS011;6425;50.316;8.114;2023-12-07T06:09:00;23.4;;;12.7;;
12721;SDS011;6425;50.316;8.114;2023-12-07T06:12:00;23.4;;;12.7;;
12721;SDS011;6425;50.316;8.114;2023-12-07T06:15:00;23.3;;;10.4;;
12721;SDS011;6425;50.316;8.114;2023-12-07T06:18:00;23.3;;;10.4;;
12721;SDS011;6425;50.316;8.114;2023-12-07T06:21:00;16.3;;;9.2;;
12721;SDS011;6425;50.316;8.114;2023-12-07T06:24:00;20.4;;;10.1;;
12721;SDS011;6425;50.316;8.114;2023-12-07T06:27:00;20.4;;;10.1;;
12721;SDS011;6425;50.316;8.114;2023-12-07T06:30:00;18.9;;;10;;
12721;SDS011;6425;50.316;8.114;2023-12-07T06:33:00;18.9;;;10;;
12721;SDS011;6425;50.316;8.114;2023-12-07T06:36:00;19.8;;;10.4;;
12721;SDS011;6425;50.316;8.114;2023-12-07T06:39:00;21;;;10.1;;
12721;SDS011;6425;50.316;8.114;2023-12-07T06:42:00;21;;;10.1;;
12721;SDS011;6425;50.316;8.114;2023-12-07T06:45:00;23.5;;;12.1;;
12721;SDS011;6425;50.316;8.114;2023-12-07T06:48:00;23.4;;;11.9;;
12721;SDS011;6425;50.316;8.114;2023-12-07T06:51:00;23.3;;;11.4;;
12721;SDS011;6425;50.316;8.114;2023-12-07T06:54:00;27.2;;;14.1;;
12721;SDS011;6425;50.316;8.114;2023-12-07T06:57:00;27.2;;;14.1;;
12721;SDS011;6425;50.316;8.114;2023-12-07T07:00:00;23.1;;;12;;
12721;SDS011;6425;50.316;8.114;2023-12-07T07:03:00;22.5;;;12.6;;
12721;SDS011;6425;50.316;8.114;2023-12-07T07:06:00;22.5;;;12.6;;
12721;SDS011;6425;50.316;8.114;2023-12-07T07:09:00;30.7;;;14.1;;
12721;SDS011;6425;50.316;8.114;2023-12-07T07:12:00;30.7;;;14.1;;
12721;SDS011;6425;50.316;8.114;2023-12-07T07:15:00;29;;;13.5;;
12721;SDS011;6425;50.316;8.114;2023-12-07T07:18:00;32.5;;;15.4;;
12721;SDS011;6425;50.316;8.114;2023-12-07T07:21:00;32.5;;;15.4;;
12721;SDS011;6425;50.316;8.114;2023-12-07T07:24:00;34.9;;;15.9;;
12721;SDS011;6425;50.316;8.114;2023-12-07T07:27:00;34.9;;;15.9;;
12721;SDS011;6425;50.316;8.114;2023-12-07T07:30:00;41.5;;;18.5;;
12721;SDS011;6425;50.316;8.114;2023-12-07T07:33:00;38.7;;;16.8;;
12721;SDS011;6425;50.316;8.114;2023-12-07T07:36:00;38.7;;;16.8;;
12721;SDS011;6425;50.316;8.114;2023-12-07T07:39:00;34.8;;;15.5;;
12721;SDS011;6425;50.316;8.114;2023-12-07T07:42:00;34.8;;;15.5;;
12721;SDS011;6425;50.316;8.114;2023-12-07T07:45:00;40.6;;;15.8;;
12721;SDS011;6425;50.316;8.114;2023-12-07T07:48:00;39.9;;;15.1;;
12721;SDS011;6425;50.316;8.114;2023-12-07T07:51:00;39.9;;;15.1;;
12721;SDS011;6425;50.316;8.114;2023-12-07T07:54:00;32.1;;;13.8;;
12721;SDS011;6425;50.316;8.114;2023-12-07T07:57:00;32.1;;;13.8;;
12721;SDS011;6425;50.316;8.114;2023-12-07T08:00:00;36.6;;;14.2;;
12721;SDS011;6425;50.316;8.114;2023-12-07T08:03:00;30.1;;;13.7;;
12721;SDS011;6425;50.316;8.114;2023-12-07T08:06:00;30.1;;;13.7;;
12721;SDS011;6425;50.316;8.114;2023-12-07T08:09:00;32.8;;;14.4;;
12721;SDS011;6425;50.316;8.114;2023-12-07T08:12:00;32.8;;;14.4;;
12721;SDS011;6425;50.316;8.114;2023-12-07T08:15:00;46.9;;;20.3;;
12721;SDS011;6425;50.316;8.114;2023-12-07T08:18:00;33;;;15.3;;
12721;SDS011;6425;50.316;8.114;2023-12-07T08:21:00;33;;;15.3;;
12721;SDS011;6425;50.316;8.114;2023-12-07T08:24:00;34.7;;;15.2;;
12721;SDS011;6425;50.316;8.114;2023-12-07T08:27:00;34.7;;;15.2;;
12721;SDS011;6425;50.316;8.114;2023-12-07T08:30:00;38.2;;;17.1;;
12721;SDS011;6425;50.316;8.114;2023-12-07T08:33:00;41.2;;;16.9;;
12721;SDS011;6425;50.316;8.114;2023-12-07T08:36:00;41.2;;;16.9;;
12721;SDS011;6425;50.316;8.114;2023-12-07T08:39:00;90.7;;;17.7;;
12721;SDS011;6425;50.316;8.114;2023-12-07T08:42:00;90.7;;;17.7;;
12721;SDS011;6425;50.316;8.114;2023-12-07T08:45:00;108.1;;;18.9;;
12721;SDS011;6425;50.316;8.114;2023-12-07T08:48:00;113.2;;;20.1;;
12721;SDS011;6425;50.316;8.114;2023-12-07T08:51:00;113.2;;;20.1;;
12721;SDS011;6425;50.316;8.114;2023-12-07T08:54:00;77.9;;;17.6;;
12721;SDS011;6425;50.316;8.114;2023-12-07T08:57:00;77.9;;;17.6;;
12721;SDS011;6425;50.316;8.114;2023-12-07T09:00:00;106.6;;;19.2;;
12721;SDS011;6425;50.316;8.114;2023-12-07T09:03:00;160;;;21.7;;
12721;SDS011;6425;50.316;8.114;2023-12-07T09:06:00;160;;;21.7;;
12721;SDS011;6425;50.316;8.114;2023-12-07T09:09:00;384.4;;;32;;
12721;SDS011;6425;50.316;8.114;2023-12-07T09:12:00;384.4;;;32;;
12721;SDS011;6425;50.316;8.114;2023-12-07T09:15:00;551;;;40.1;;
12721;SDS011;6425;50.316;8.114;2023-12-07T09:18:00;492.8;;;36.2;;
12721;SDS011;6425;50.316;8.114;2023-12-07T09:21:00;492.8;;;36.2;;
12721;SDS011;6425;50.316;8.114;2023-12-07T09:24:00;665.3;;;49.9;;
12721;SDS011;6425;50.316;8.114;2023-12-07T09:27:00;641.9;;;52.5;;
12721;SDS011;6425;50.316;8.114;2023-12-07T09:30:00;641.9;;;52.5;;
12721;SDS011;6425;50.316;8.114;2023-12-07T09:33:00;728.4;;;56.1;;
12721;SDS011;6425;50.316;8.114;2023-12-07T09:36:00;728.4;;;56.1;;
12721;SDS011;6425;50.316;8.114;2023-12-07T09:39:00;577.7;;;38.3;;
12721;SDS011;6425;50.316;8.114;2023-12-07T09:42:00;597.1;;;44;;
12721;SDS011;6425;50.316;8.114;2023-12-07T09:45:00;597.1;;;44;;
12721;SDS011;6425;50.316;8.114;2023-12-07T09:48:00;640.9;;;50;;
12721;SDS011;6425;50.316;8.114;2023-12-07T09:51:01;640.9;;;50;;
12721;SDS011;6425;50.316;8.114;2023-12-07T09:54:00;793.3;;;51.1;;
12721;SDS011;6425;50.316;8.114;2023-12-07T09:57:00;647.2;;;39.8;;
12721;SDS011;6425;50.316;8.114;2023-12-07T10:00:00;647.2;;;39.8;;
12721;SDS011;6425;50.316;8.114;2023-12-07T10:03:00;684.5;;;41.4;;
12721;SDS011;6425;50.316;8.114;2023-12-07T10:06:00;684.5;;;41.4;;
12721;SDS011;6425;50.316;8.114;2023-12-07T10:09:02;318.2;;;26.7;;
12721;SDS011;6425;50.316;8.114;2023-12-07T10:12:03;672.3;;;47.3;;
12721;SDS011;6425;50.316;8.114;2023-12-07T10:15:00;672.3;;;47.3;;
12721;SDS011;6425;50.316;8.114;2023-12-07T10:18:00;648.3;;;42.4;;
12721;SDS011;6425;50.316;8.114;2023-12-07T10:21:00;648.3;;;42.4;;
12721;SDS011;6425;50.316;8.114;2023-12-07T10:24:00;540.6;;;37.9;;
12721;SDS011;6425;50.316;8.114;2023-12-07T10:27:00;358.9;;;26;;
12721;SDS011;6425;50.316;8.114;2023-12-07T10:30:00;358.9;;;26;;
12721;SDS011;6425;50.316;8.114;2023-12-07T10:33:00;194.9;;;19.7;;
12721;SDS011;6425;50.316;8.114;2023-12-07T10:36:02;194.9;;;19.7;;
12721;SDS011;6425;50.316;8.114;2023-12-07T10:39:00;561.6;;;34.9;;
12721;SDS011;6425;50.316;8.114;2023-12-07T10:42:00;283.7;;;24;;
12721;SDS011;6425;50.316;8.114;2023-12-07T10:45:01;283.7;;;24;;
12721;SDS011;6425;50.316;8.114;2023-12-07T10:48:00;571.9;;;41.3;;
12721;SDS011;6425;50.316;8.114;2023-12-07T10:51:00;571.9;;;41.3;;
12721;SDS011;6425;50.316;8.114;2023-12-07T10:54:00;249;;;23.8;;
12721;SDS011;6425;50.316;8.114;2023-12-07T10:57:00;269.6;;;82;;
12721;SDS011;6425;50.316;8.114;2023-12-07T11:00:00;269.6;;;82;;
12721;SDS011;6425;50.316;8.114;2023-12-07T11:03:00;113.1;;;28.2;;
12721;SDS011;6425;50.316;8.114;2023-12-07T11:06:00;113.1;;;28.2;;
12721;SDS011;6425;50.316;8.114;2023-12-07T11:09:00;364.2;;;26;;
12721;SDS011;6425;50.316;8.114;2023-12-07T11:12:01;356.1;;;27;;
12721;SDS011;6425;50.316;8.114;2023-12-07T11:15:00;356.1;;;27;;
12721;SDS011;6425;50.316;8.114;2023-12-07T11:18:00;428.2;;;30.7;;
12721;SDS011;6425;50.316;8.114;2023-12-07T11:21:00;428.2;;;30.7;;
12721;SDS011;6425;50.316;8.114;2023-12-07T11:24:00;364.4;;;26.1;;
12721;SDS011;6425;50.316;8.114;2023-12-07T11:27:00;269.3;;;26.1;;
12721;SDS011;6425;50.316;8.114;2023-12-07T11:30:00;269.3;;;26.1;;
12721;SDS011;6425;50.316;8.114;2023-12-07T11:33:00;307.3;;;30.4;;
12721;SDS011;6425;50.316;8.114;2023-12-07T11:36:04;307.3;;;30.4;;
12721;SDS011;6425;50.316;8.114;2023-12-07T11:39:15;348.1;;;30.7;;
12721;SDS011;6425;50.316;8.114;2023-12-07T11:42:05;300.6;;;35.8;;
12721;SDS011;6425;50.316;8.114;2023-12-07T11:45:00;300.6;;;35.8;;
12721;SDS011;6425;50.316;8.114;2023-12-07T11:48:08;154.8;;;25.4;;
12721;SDS011;6425;50.316;8.114;2023-12-07T11:51:00;204;;;39.8;;
12721;SDS011;6425;50.316;8.114;2023-12-07T11:54:00;220.5;;;44.7;;
12721;SDS011;6425;50.316;8.114;2023-12-07T11:57:00;122.4;;;25;;
12721;SDS011;6425;50.316;8.114;2023-12-07T12:00:00;122.4;;;25;;
12721;SDS011;6425;50.316;8.114;2023-12-07T12:03:00;121;;;24;;
12721;SDS011;6425;50.316;8.114;2023-12-07T12:06:01;110.7;;;24.7;;
12721;SDS011;6425;50.316;8.114;2023-12-07T12:09:00;110.7;;;24.7;;
12721;SDS011;6425;50.316;8.114;2023-12-07T12:12:00;82.9;;;21.7;;
12721;SDS011;6425;50.316;8.114;2023-12-07T12:15:00;82.9;;;21.7;;
12721;SDS011;6425;50.316;8.114;2023-12-07T12:18:00;83;;;20.9;;
12721;SDS011;6425;50.316;8.114;2023-12-07T12:21:00;167.8;;;25.2;;
12721;SDS011;6425;50.316;8.114;2023-12-07T12:24:00;167.8;;;25.2;;
12721;SDS011;6425;50.316;8.114;2023-12-07T12:27:00;188.9;;;28.3;;
12721;SDS011;6425;50.316;8.114;2023-12-07T12:30:00;188.9;;;28.3;;
12721;SDS011;6425;50.316;8.114;2023-12-07T12:33:00;155.9;;;24;;
12721;SDS011;6425;50.316;8.114;2023-12-07T12:36:01;97;;;24.9;;
12721;SDS011;6425;50.316;8.114;2023-12-07T12:39:00;97;;;24.9;;
12721;SDS011;6425;50.316;8.114;2023-12-07T12:42:00;65.9;;;18.9;;
12721;SDS011;6425;50.316;8.114;2023-12-07T12:45:00;65.9;;;18.9;;
12721;SDS011;6425;50.316;8.114;2023-12-07T12:48:00;66.1;;;21.2;;
12721;SDS011;6425;50.316;8.114;2023-12-07T12:51:06;53.9;;;19.7;;
12721;SDS011;6425;50.316;8.114;2023-12-07T12:54:00;53.9;;;19.7;;
12721;SDS011;6425;50.316;8.114;2023-12-07T12:57:00;66.8;;;20;;
12721;SDS011;6425;50.316;8.114;2023-12-07T13:00:00;66.8;;;20;;
12721;SDS011;6425;50.316;8.114;2023-12-07T13:03:00;61.4;;;20.2;;
12721;SDS011;6425;50.316;8.114;2023-12-07T13:06:00;72.2;;;21.8;;
12721;SDS011;6425;50.316;8.114;2023-12-07T13:09:00;72.2;;;21.8;;
12721;SDS011;6425;50.316;8.114;2023-12-07T13:12:00;79.7;;;21.2;;
12721;SDS011;6425;50.316;8.114;2023-12-07T13:15:00;79.7;;;21.2;;
12721;SDS011;6425;50.316;8.114;2023-12-07T13:18:00;54.4;;;19.2;;
12721;SDS011;6425;50.316;8.114;2023-12-07T13:21:00;51.9;;;19.2;;
12721;SDS011;6425;50.316;8.114;2023-12-07T13:24:00;51.9;;;19.2;;
12721;SDS011;6425;50.316;8.114;2023-12-07T13:27:00;52.5;;;19.2;;
12721;SDS011;6425;50.316;8.114;2023-12-07T13:30:00;52.5;;;19.2;;
12721;SDS011;6425;50.316;8.114;2023-12-07T13:33:00;45.2;;;18.1;;
12721;SDS011;6425;50.316;8.114;2023-12-07T13:36:00;47.7;;;19;;
12721;SDS011;6425;50.316;8.114;2023-12-07T13:39:00;47.7;;;19;;
12721;SDS011;6425;50.316;8.114;2023-12-07T13:42:00;45;;;18;;
12721;SDS011;6425;50.316;8.114;2023-12-07T13:45:00;45;;;18;;
12721;SDS011;6425;50.316;8.114;2023-12-07T13:48:00;40.9;;;16.8;;
12721;SDS011;6425;50.316;8.114;2023-12-07T13:51:00;43.9;;;17.1;;
12721;SDS011;6425;50.316;8.114;2023-12-07T13:54:00;43.9;;;17.1;;
12721;SDS011;6425;50.316;8.114;2023-12-07T13:57:00;47.8;;;17.3;;
12721;SDS011;6425;50.316;8.114;2023-12-07T14:00:00;47.8;;;17.3;;
12721;SDS011;6425;50.316;8.114;2023-12-07T14:03:00;35.3;;;15.1;;
12721;SDS011;6425;50.316;8.114;2023-12-07T14:06:00;32.2;;;16.4;;
12721;SDS011;6425;50.316;8.114;2023-12-07T14:09:00;32.2;;;16.4;;
12721;SDS011;6425;50.316;8.114;2023-12-07T14:12:00;37.5;;;17.8;;
12721;SDS011;6425;50.316;8.114;2023-12-07T14:15:00;37.5;;;17.8;;
12721;SDS011;6425;50.316;8.114;2023-12-07T14:18:00;44.5;;;20.9;;
12721;SDS011;6425;50.316;8.114;2023-12-07T14:21:00;24;;;12.2;;
12721;SDS011;6425;50.316;8.114;2023-12-07T14:24:00;24;;;12.2;;
12721;SDS011;6425;50.316;8.114;2023-12-07T14:27:00;32.8;;;17.5;;
12721;SDS011;6425;50.316;8.114;2023-12-07T14:30:00;23.8;;;13.3;;
12721;SDS011;6425;50.316;8.114;2023-12-07T14:33:00;23.8;;;13.3;;
12721;SDS011;6425;50.316;8.114;2023-12-07T14:36:00;21.4;;;12;;
12721;SDS011;6425;50.316;8.114;2023-12-07T14:39:00;21.4;;;12;;
12721;SDS011;6425;50.316;8.114;2023-12-07T14:42:00;18.5;;;10.3;;
12721;SDS011;6425;50.316;8.114;2023-12-07T14:45:00;20.7;;;10.8;;
12721;SDS011;6425;50.316;8.114;2023-12-07T14:48:00;20.7;;;10.8;;
12721;SDS011;6425;50.316;8.114;2023-12-07T14:51:00;27.8;;;16.3;;
12721;SDS011;6425;50.316;8.114;2023-12-07T14:54:00;27.8;;;16.3;;
12721;SDS011;6425;50.316;8.114;2023-12-07T14:57:00;22.1;;;11;;
12721;SDS011;6425;50.316;8.114;2023-12-07T15:00:00;20.6;;;10.1;;
12721;SDS011;6425;50.316;8.114;2023-12-07T15:03:00;20.6;;;10.1;;
12721;SDS011;6425;50.316;8.114;2023-12-07T15:06:00;22.8;;;10.2;;
12721;SDS011;6425;50.316;8.114;2023-12-07T15:09:00;22.8;;;10.2;;
12721;SDS011;6425;50.316;8.114;2023-12-07T15:12:00;25;;;12;;
12721;SDS011;6425;50.316;8.114;2023-12-07T15:15:00;27.5;;;11;;
12721;SDS011;6425;50.316;8.114;2023-12-07T15:18:00;27.5;;;11;;
12721;SDS011;6425;50.316;8.114;2023-12-07T15:21:00;26.6;;;11.7;;
12721;SDS011;6425;50.316;8.114;2023-12-07T15:24:00;26.6;;;11.7;;
12721;SDS011;6425;50.316;8.114;2023-12-07T15:27:00;29.2;;;12.7;;
12721;SDS011;6425;50.316;8.114;2023-12-07T15:30:00;20.3;;;8.9;;
12721;SDS011;6425;50.316;8.114;2023-12-07T15:33:00;20.3;;;8.9;;
12721;SDS011;6425;50.316;8.114;2023-12-07T15:36:03;24.9;;;10.4;;
12721;SDS011;6425;50.316;8.114;2023-12-07T15:39:00;24.9;;;10.4;;
12721;SDS011;6425;50.316;8.114;2023-12-07T15:42:00;21.8;;;10.1;;
12721;SDS011;6425;50.316;8.114;2023-12-07T15:45:00;25.4;;;11.6;;
12721;SDS011;6425;50.316;8.114;2023-12-07T15:48:00;25.4;;;11.6;;
12721;SDS011;6425;50.316;8.114;2023-12-07T15:51:00;26.1;;;12;;
12721;SDS011;6425;50.316;8.114;2023-12-07T15:54:00;26.1;;;12;;
12721;SDS011;6425;50.316;8.114;2023-12-07T15:57:00;32.7;;;13;;
12721;SDS011;6425;50.316;8.114;2023-12-07T16:00:00;34.9;;;15.8;;
12721;SDS011;6425;50.316;8.114;2023-12-07T16:03:00;34.9;;;15.8;;
12721;SDS011;6425;50.316;8.114;2023-12-07T16:06:00;30.4;;;13.6;;
12721;SDS011;6425;50.316;8.114;2023-12-07T16:09:00;30.4;;;13.6;;
12721;SDS011;6425;50.316;8.114;2023-12-07T16:12:00;28.5;;;13.3;;
12721;SDS011;6425;50.316;8.114;2023-12-07T16:15:00;36.1;;;17;;
12721;SDS011;6425;50.316;8.114;2023-12-07T16:18:00;36.1;;;17;;
12721;SDS011;6425;50.316;8.114;2023-12-07T16:21:00;36.4;;;16.5;;
12721;SDS011;6425;50.316;8.114;2023-12-07T16:24:00;36.4;;;16.5;;
12721;SDS011;6425;50.316;8.114;2023-12-07T16:27:00;72.3;;;28.9;;
12721;SDS011;6425;50.316;8.114;2023-12-07T16:30:00;54.7;;;24.4;;
12721;SDS011;6425;50.316;8.114;2023-12-07T16:33:00;54.7;;;24.4;;
12721;SDS011;6425;50.316;8.114;2023-12-07T16:36:00;47.1;;;18.7;;
12721;SDS011;6425;50.316;8.114;2023-12-07T16:39:00;47.1;;;18.7;;
12721;SDS011;6425;50.316;8.114;2023-12-07T16:42:00;69.2;;;26.1;;
12721;SDS011;6425;50.316;8.114;2023-12-07T16:45:00;37.5;;;16.2;;
12721;SDS011;6425;50.316;8.114;2023-12-07T16:48:00;37.5;;;16.2;;
12721;SDS011;6425;50.316;8.114;2023-12-07T16:51:00;50.2;;;22.1;;
12721;SDS011;6425;50.316;8.114;2023-12-07T16:54:00;47.7;;;22.5;;
12721;SDS011;6425;50.316;8.114;2023-12-07T16:57:00;45.2;;;22.9;;
12721;SDS011;6425;50.316;8.114;2023-12-07T17:00:00;37.1;;;17.7;;
12721;SDS011;6425;50.316;8.114;2023-12-07T17:03:00;37.1;;;17.7;;
12721;SDS011;6425;50.316;8.114;2023-12-07T17:06:00;41.5;;;18.9;;
12721;SDS011;6425;50.316;8.114;2023-12-07T17:09:00;38.7;;;17.2;;
12721;SDS011;6425;50.316;8.114;2023-12-07T17:12:00;38.7;;;17.2;;
12721;SDS011;6425;50.316;8.114;2023-12-07T17:15:00;41;;;19;;
12721;SDS011;6425;50.316;8.114;2023-12-07T17:18:00;41;;;19;;
12721;SDS011;6425;50.316;8.114;2023-12-07T17:21:00;192.2;;;45.6;;
12721;SDS011;6425;50.316;8.114;2023-12-07T17:24:00;189.3;;;50.1;;
12721;SDS011;6425;50.316;8.114;2023-12-07T17:27:00;189.3;;;50.1;;
12721;SDS011;6425;50.316;8.114;2023-12-07T17:30:00;88.7;;;28.7;;
12721;SDS011;6425;50.316;8.114;2023-12-07T17:33:00;88.7;;;28.7;;
12721;SDS011;6425;50.316;8.114;2023-12-07T17:36:00;61.2;;;25.1;;
12721;SDS011;6425;50.316;8.114;2023-12-07T17:39:00;86.3;;;37;;
12721;SDS011;6425;50.316;8.114;2023-12-07T17:42:00;86.3;;;37;;
12721;SDS011;6425;50.316;8.114;2023-12-07T17:45:00;50.3;;;23.5;;
12721;SDS011;6425;50.316;8.114;2023-12-07T17:48:00;50.3;;;23.5;;
12721;SDS011;6425;50.316;8.114;2023-12-07T17:51:00;164.1;;;88.3;;
12721;SDS011;6425;50.316;8.114;2023-12-07T17:54:00;58.7;;;33.7;;
12721;SDS011;6425;50.316;8.114;2023-12-07T17:57:00;58.7;;;33.7;;
12721;SDS011;6425;50.316;8.114;2023-12-07T18:00:00;42.1;;;21.7;;
12721;SDS011;6425;50.316;8.114;2023-12-07T18:03:00;42.1;;;21.7;;
12721;SDS011;6425;50.316;8.114;2023-12-07T18:06:00;35.2;;;19;;
12721;SDS011;6425;50.316;8.114;2023-12-07T18:09:00;42.3;;;21.9;;
12721;SDS011;6425;50.316;8.114;2023-12-07T18:12:00;42.3;;;21.9;;
12721;SDS011;6425;50.316;8.114;2023-12-07T18:15:00;35.6;;;19;;
12721;SDS011;6425;50.316;8.114;2023-12-07T18:18:00;35.6;;;19;;
12721;SDS011;6425;50.316;8.114;2023-12-07T18:21:00;34.7;;;18.5;;
12721;SDS011;6425;50.316;8.114;2023-12-07T18:24:00;29.6;;;16.4;;